Time;durP1;ratioP1;P1;durP2;ratioP2;P2;SDS_P1;SDS_P2;PMS_P1;PMS_P2;Temp;Humidity;BMP_temperature;BMP_pressure;BME280_temperature;BME280_humidity;BME280_pressure;Samples;Min_cycle;Max_cycle;Signal;HPM_P1;HPM_P2
2023/09/17 00:01:49;;;;;;;7.93;7.30;;;;;;;14.06;100.00;96878.78;4940454;28;20741;-58
2023/09/17 00:04:18;;;;;;;6.90;6.40;;;;;;;14.01;100.00;96883.94;4940514;28;20638;-61
2023/09/17 00:06:45;;;;;;;7.47;6.87;;;;;;;13.98;100.00;96895.00;4812552;28;21856;-61
2023/09/17 00:09:13;;;;;;;10.83;6.90;;;;;;;13.93;100.00;96889.50;4940596;28;20595;-58
2023/09/17 00:11:41;;;;;;;7.23;6.73;;;;;;;13.89;100.00;96897.09;4894941;28;20239;-60
2023/09/17 00:14:09;;;;;;;6.77;6.37;;;;;;;13.86;100.00;96897.53;4938714;28;20203;-58
2023/09/17 00:16:38;;;;;;;7.83;7.27;;;;;;;13.80;100.00;96898.38;4939786;28;20313;-58
2023/09/17 00:19:06;;;;;;;6.80;6.23;;;;;;;13.71;100.00;96903.13;4937099;28;20206;-64
2023/09/17 00:21:35;;;;;;;8.03;7.03;;;;;;;13.67;100.00;96897.41;4892805;28;20876;-60
2023/09/17 00:24:03;;;;;;;8.07;7.50;;;;;;;13.55;100.00;96897.25;4941341;28;20418;-62
2023/09/17 00:26:31;;;;;;;7.47;6.87;;;;;;;13.49;100.00;96899.91;4935788;28;20258;-60
2023/09/17 00:28:59;;;;;;;7.23;6.73;;;;;;;13.41;100.00;96899.09;4875425;28;20207;-62
2023/09/17 00:31:27;;;;;;;7.27;6.77;;;;;;;13.38;100.00;96893.34;4939689;28;20230;-61
2023/09/17 00:33:55;;;;;;;8.10;7.30;;;;;;;13.30;100.00;96908.53;4939135;28;20222;-60
2023/09/17 00:36:23;;;;;;;7.87;7.37;;;;;;;13.24;100.00;96908.53;4935507;28;20662;-61
2023/09/17 00:38:52;;;;;;;8.10;7.37;;;;;;;13.23;100.00;96913.06;4809824;28;20215;-61
2023/09/17 00:41:20;;;;;;;7.70;7.07;;;;;;;13.20;100.00;96908.16;4939435;28;20794;-58
2023/09/17 00:43:48;;;;;;;7.50;7.00;;;;;;;13.15;100.00;96910.63;4893964;28;20314;-59
2023/09/17 00:46:16;;;;;;;9.03;8.17;;;;;;;13.12;100.00;96903.06;4936638;28;20230;-59
2023/09/17 00:48:44;;;;;;;7.73;7.17;;;;;;;13.08;100.00;96904.50;4937995;28;20203;-57
2023/09/17 00:51:11;;;;;;;8.23;7.53;;;;;;;13.04;100.00;96906.75;4941975;28;20622;-61
2023/09/17 00:53:40;;;;;;;8.70;8.00;;;;;;;13.07;100.00;96902.81;4892265;28;20446;-62
2023/09/17 00:56:09;;;;;;;8.03;7.30;;;;;;;13.02;100.00;96912.25;4954062;28;20757;-62
2023/09/17 00:58:37;;;;;;;8.57;7.87;;;;;;;13.00;100.00;96919.63;4930347;28;20294;-59
2023/09/17 01:01:05;;;;;;;8.33;7.73;;;;;;;13.03;100.00;96913.88;4941708;28;20231;-58
2023/09/17 01:03:32;;;;;;;9.40;8.17;;;;;;;13.08;100.00;96907.16;4936169;28;22430;-61
2023/09/17 01:06:01;;;;;;;8.40;7.80;;;;;;;12.95;100.00;96892.81;4941236;28;20289;-61
2023/09/17 01:08:29;;;;;;;7.73;7.13;;;;;;;13.06;100.00;96898.53;4805430;28;21688;-58
2023/09/17 01:10:56;;;;;;;8.50;7.80;;;;;;;13.02;100.00;96890.97;4942414;28;20250;-60
2023/09/17 01:13:26;;;;;;;8.93;8.23;;;;;;;13.04;100.00;96901.41;4895515;28;21026;-59
2023/09/17 01:15:54;;;;;;;8.47;7.57;;;;;;;13.05;100.00;96896.91;4942074;28;20281;-60
2023/09/17 01:18:22;;;;;;;7.67;7.17;;;;;;;13.02;100.00;96896.28;4932000;28;20231;-64
2023/09/17 01:20:52;;;;;;;8.03;7.53;;;;;;;12.95;100.00;96897.34;4939477;28;20227;-60
2023/09/17 01:23:26;;;;;;;9.17;8.47;;;;;;;12.96;100.00;96896.31;4898800;28;23121;-60
2023/09/17 01:25:57;;;;;;;8.77;7.57;;;;;;;12.96;100.00;96902.44;4936190;28;20243;-59
2023/09/17 01:28:26;;;;;;;7.70;7.20;;;;;;;12.96;100.00;96906.94;4936901;28;20218;-62
2023/09/17 01:30:54;;;;;;;8.40;7.60;;;;;;;12.95;100.00;96913.31;4938285;28;20222;-61
2023/09/17 01:33:21;;;;;;;8.33;7.67;;;;;;;12.86;100.00;96921.47;4934760;28;20302;-62
2023/09/17 01:35:54;;;;;;;8.00;7.30;;;;;;;12.85;100.00;96914.50;4944495;28;20252;-61
2023/09/17 01:38:23;;;;;;;10.60;7.87;;;;;;;12.89;100.00;96925.56;4833543;28;20943;-58
2023/09/17 01:40:51;;;;;;;7.67;7.17;;;;;;;12.92;100.00;96917.16;4943646;28;20231;-60
2023/09/17 01:43:20;;;;;;;8.47;7.87;;;;;;;12.85;100.00;96909.19;4937402;28;20258;-62
2023/09/17 01:45:50;;;;;;;8.00;7.40;;;;;;;12.85;100.00;96916.38;4940563;28;20227;-62
2023/09/17 01:48:19;;;;;;;8.47;7.83;;;;;;;12.78;100.00;96903.06;4903667;28;20671;-62
2023/09/17 01:50:47;;;;;;;7.37;6.87;;;;;;;12.86;100.00;96918.81;4929751;28;20218;-62
2023/09/17 01:53:15;;;;;;;8.17;7.57;;;;;;;12.81;100.00;96915.13;4937360;28;20314;-64
2023/09/17 01:55:43;;;;;;;7.97;7.27;;;;;;;12.72;100.00;96928.63;4937148;28;20385;-62
2023/09/17 01:58:11;;;;;;;7.77;7.17;;;;;;;12.72;100.00;96911.84;4913893;28;20953;-62
2023/09/17 02:00:39;;;;;;;7.77;7.27;;;;;;;12.68;100.00;96916.75;4920269;28;20718;-60
2023/09/17 02:03:08;;;;;;;7.87;7.30;;;;;;;12.63;100.00;96913.91;4937798;28;20374;-64
2023/09/17 02:05:36;;;;;;;8.87;8.17;;;;;;;12.59;100.00;96920.63;4937265;28;20230;-61
2023/09/17 02:08:04;;;;;;;8.23;7.53;;;;;;;12.57;100.00;96915.53;4935615;28;20662;-60
2023/09/17 02:10:31;;;;;;;8.97;8.17;;;;;;;12.55;100.00;96914.94;4939393;28;20234;-60
2023/09/17 02:13:00;;;;;;;7.83;7.20;;;;;;;12.50;100.00;96909.41;4889976;28;20623;-61
2023/09/17 02:15:29;;;;;;;7.73;7.23;;;;;;;12.52;100.00;96919.81;4872574;28;20249;-61
2023/09/17 02:17:56;;;;;;;8.40;7.80;;;;;;;12.48;100.00;96915.94;4940321;28;20203;-63
2023/09/17 02:20:26;;;;;;;8.17;7.47;;;;;;;12.43;100.00;96914.72;4936761;28;20199;-61
2023/09/17 02:22:53;;;;;;;7.73;7.13;;;;;;;12.31;100.00;96905.69;4935760;28;20307;-61
2023/09/17 02:25:21;;;;;;;7.57;6.97;;;;;;;12.40;100.00;96912.47;4899975;28;20235;-61
2023/09/17 02:27:50;;;;;;;8.53;7.93;;;;;;;12.37;100.00;96912.88;4939785;28;20199;-58
2023/09/17 02:30:17;;;;;;;7.63;6.93;;;;;;;12.37;100.00;96901.41;4894694;28;20333;-60
2023/09/17 02:32:45;;;;;;;9.10;8.43;;;;;;;12.36;100.00;96903.25;4935668;28;20660;-60
2023/09/17 02:35:13;;;;;;;10.70;9.90;;;;;;;12.38;100.00;96900.38;4936470;28;20227;-60
2023/09/17 02:37:42;;;;;;;11.73;10.83;;;;;;;12.35;100.00;96896.31;4938716;28;20211;-61
2023/09/17 02:40:11;;;;;;;10.47;9.43;;;;;;;12.32;100.00;96902.03;4934086;28;20207;-63
2023/09/17 02:42:39;;;;;;;11.00;10.20;;;;;;;12.31;100.00;96895.06;4937129;28;20608;-62
2023/09/17 02:45:08;;;;;;;10.07;9.33;;;;;;;12.35;100.00;96901.63;4936833;28;20548;-62
2023/09/17 02:47:36;;;;;;;9.23;8.63;;;;;;;12.36;100.00;96903.25;4936448;28;20231;-58
2023/09/17 02:50:05;;;;;;;9.23;8.53;;;;;;;12.35;100.00;96906.09;4806111;28;20242;-63
2023/09/17 02:52:32;;;;;;;8.73;8.13;;;;;;;12.33;100.00;96903.66;4939343;28;20303;-61
2023/09/17 02:55:02;;;;;;;9.63;8.83;;;;;;;12.33;100.00;96902.84;4890421;28;20239;-60
2023/09/17 02:57:30;;;;;;;9.10;8.40;;;;;;;12.32;100.00;96901.19;4936381;28;20245;-61
2023/09/17 02:59:58;;;;;;;8.03;7.43;;;;;;;12.34;100.00;96904.47;4935103;28;20227;-63
2023/09/17 03:02:25;;;;;;;8.87;8.17;;;;;;;12.27;100.00;96904.44;4937970;28;20313;-62
2023/09/17 03:04:56;;;;;;;9.23;8.47;;;;;;;12.23;100.00;96905.88;4887210;28;20234;-64
2023/09/17 03:07:24;;;;;;;8.53;7.90;;;;;;;12.15;100.00;96907.69;4935421;28;20542;-59
2023/09/17 03:09:52;;;;;;;8.83;7.93;;;;;;;12.18;100.00;96909.16;4933370;28;20214;-59
2023/09/17 03:12:21;;;;;;;8.83;8.23;;;;;;;12.22;100.00;96912.19;4938602;28;20290;-62
2023/09/17 03:14:48;;;;;;;8.90;8.27;;;;;;;12.25;100.00;96911.81;4933086;28;20227;-61
2023/09/17 03:17:16;;;;;;;9.63;8.73;;;;;;;12.23;100.00;96906.69;4938344;28;20258;-61
2023/09/17 03:19:44;;;;;;;9.10;8.47;;;;;;;12.08;100.00;96890.94;4807330;28;20214;-63
2023/09/17 03:22:11;;;;;;;8.87;8.17;;;;;;;12.05;100.00;96895.81;4938773;28;20230;-61
2023/09/17 03:24:40;;;;;;;8.63;7.93;;;;;;;12.11;100.00;96901.16;4934035;28;20286;-62
2023/09/17 03:27:29;;;;;;;8.80;8.20;;;;;;;12.12;100.00;96912.59;4937714;28;20630;-62
2023/09/17 03:29:56;;;;;;;8.77;8.17;;;;;;;12.11;100.00;96906.47;4896689;28;20305;-59
2023/09/17 03:32:24;;;;;;;8.87;8.17;;;;;;;12.11;100.00;96911.78;4940010;28;20205;-57
2023/09/17 03:34:52;;;;;;;7.90;7.37;;;;;;;12.17;100.00;96904.84;4935376;28;20221;-60
2023/09/17 03:37:19;;;;;;;9.03;8.33;;;;;;;12.14;100.00;96914.03;4941833;28;20257;-62
2023/09/17 03:39:57;;;;;;;8.50;7.80;;;;;;;12.21;100.00;96913.22;4894042;28;20219;-58
2023/09/17 03:42:24;;;;;;;8.53;7.80;;;;;;;12.20;100.00;96920.38;4938481;28;20258;-59
2023/09/17 03:44:53;;;;;;;9.67;8.87;;;;;;;12.26;100.00;96916.94;4936978;28;20222;-59
2023/09/17 03:47:21;;;;;;;9.33;8.63;;;;;;;12.36;100.00;96916.53;4942305;28;20564;-57
2023/09/17 03:49:49;;;;;;;8.03;7.53;;;;;;;12.44;100.00;96911.03;4939883;28;20207;-61
2023/09/17 03:52:16;;;;;;;9.27;8.57;;;;;;;12.50;100.00;96901.44;4939660;28;20222;-61
2023/09/17 03:54:44;;;;;;;8.73;8.00;;;;;;;12.58;100.00;96901.22;4808908;28;20231;-60
2023/09/17 03:57:12;;;;;;;9.73;8.90;;;;;;;12.58;100.00;96901.22;4941983;28;20294;-61
2023/09/17 03:59:39;;;;;;;8.97;8.20;;;;;;;12.58;100.00;96911.88;4937761;28;20235;-62
2023/09/17 04:02:09;;;;;;;9.30;8.60;;;;;;;12.53;100.00;96916.97;4944750;28;20869;-60
2023/09/17 04:04:36;;;;;;;8.30;7.67;;;;;;;12.55;100.00;96917.59;4895895;28;20203;-54
2023/09/17 04:07:04;;;;;;;8.77;8.17;;;;;;;12.53;100.00;96913.47;4941389;28;20210;-59
2023/09/17 04:09:32;;;;;;;8.40;7.70;;;;;;;12.54;100.00;96925.75;4894977;28;20351;-60
2023/09/17 04:12:03;;;;;;;8.47;7.87;;;;;;;12.55;100.00;96932.69;4942148;28;20310;-62
2023/09/17 04:14:31;;;;;;;8.37;7.73;;;;;;;12.53;100.00;96940.06;4936346;28;20206;-61
2023/09/17 04:17:00;;;;;;;8.73;8.07;;;;;;;12.52;100.00;96935.75;4943241;28;20282;-61
2023/09/17 04:19:29;;;;;;;9.17;8.37;;;;;;;12.48;100.00;96939.84;4937764;28;20211;-64
2023/09/17 04:21:57;;;;;;;9.00;8.30;;;;;;;12.43;100.00;96940.44;4942918;28;20245;-61
2023/09/17 04:24:25;;;;;;;9.00;8.23;;;;;;;12.44;100.00;96952.72;4934442;28;20323;-61
2023/09/17 04:26:54;;;;;;;9.10;8.50;;;;;;;12.37;100.00;96951.88;4942163;28;20226;-62
2023/09/17 04:29:21;;;;;;;8.60;8.00;;;;;;;12.40;100.00;96962.09;4745974;28;20957;-62
2023/09/17 04:31:49;;;;;;;8.87;8.07;;;;;;;12.40;100.00;96960.28;4879666;28;20287;-63
2023/09/17 04:34:17;;;;;;;8.57;7.97;;;;;;;12.41;100.00;96959.25;4941220;28;20215;-59
2023/09/17 04:36:47;;;;;;;9.97;9.20;;;;;;;12.39;100.00;96971.09;4895422;28;20235;-60
2023/09/17 04:39:16;;;;;;;9.60;8.83;;;;;;;12.40;100.00;96970.91;4935208;28;20235;-64
2023/09/17 04:41:45;;;;;;;9.27;8.57;;;;;;;12.40;100.00;96978.88;4916060;28;20237;-59
2023/09/17 04:44:13;;;;;;;9.43;8.83;;;;;;;12.47;100.00;96976.22;4939351;28;20393;-62
2023/09/17 04:46:42;;;;;;;9.27;8.57;;;;;;;12.55;100.00;96972.56;4935381;28;20231;-62
2023/09/17 04:49:11;;;;;;;9.10;8.40;;;;;;;12.54;100.00;96961.13;4937921;28;20254;-59
2023/09/17 04:51:38;;;;;;;8.97;8.23;;;;;;;12.55;100.00;96962.75;4863487;28;20326;-62
2023/09/17 04:54:07;;;;;;;8.87;8.17;;;;;;;12.59;100.00;96961.34;4938946;28;20329;-61
2023/09/17 04:56:35;;;;;;;8.97;8.27;;;;;;;12.59;100.00;96960.50;4936329;28;21021;-62
2023/09/17 04:59:03;;;;;;;7.77;7.27;;;;;;;12.61;100.00;96970.94;4938502;28;20258;-58
2023/09/17 05:01:31;;;;;;;8.40;7.80;;;;;;;12.57;100.00;96966.03;4914336;28;20291;-61
2023/09/17 05:03:59;;;;;;;9.73;8.07;;;;;;;12.56;100.00;96968.88;4838289;28;20722;-59
2023/09/17 05:06:27;;;;;;;9.00;8.30;;;;;;;12.61;100.00;96966.44;4935033;28;20697;-62
2023/09/17 05:08:54;;;;;;;8.70;7.90;;;;;;;12.64;100.00;96974.00;4882675;28;20199;-58
2023/09/17 05:11:23;;;;;;;8.37;7.87;;;;;;;12.69;100.00;96968.09;4940496;28;20464;-58
2023/09/17 05:13:51;;;;;;;8.07;7.47;;;;;;;12.71;100.00;96969.53;4876762;28;20266;-62
2023/09/17 05:16:19;;;;;;;8.03;7.53;;;;;;;12.74;100.00;96973.63;4935634;28;20238;-61
2023/09/17 05:18:47;;;;;;;8.13;7.37;;;;;;;12.68;100.00;96977.88;4866521;28;20770;-62
2023/09/17 05:21:15;;;;;;;8.50;7.87;;;;;;;12.67;100.00;96986.09;4934983;28;20203;-61
2023/09/17 05:23:42;;;;;;;9.87;7.80;;;;;;;12.82;100.00;96978.72;4935039;28;20317;-62
2023/09/17 05:26:10;;;;;;;8.67;7.97;;;;;;;12.94;100.00;96988.78;4939529;28;20254;-60
2023/09/17 05:28:39;;;;;;;8.23;7.53;;;;;;;13.03;100.00;96985.69;4934525;28;20219;-63
2023/09/17 05:31:07;;;;;;;8.33;7.73;;;;;;;13.16;100.00;96986.72;4936177;28;20301;-61
2023/09/17 05:33:35;;;;;;;8.53;7.73;;;;;;;13.20;100.00;96989.78;4801994;28;27458;-62
2023/09/17 05:36:03;;;;;;;8.70;8.00;;;;;;;13.26;100.00;96984.47;4940909;28;20325;-62
2023/09/17 05:38:30;;;;;;;8.10;7.60;;;;;;;13.33;100.00;96979.16;4885869;28;20270;-64
2023/09/17 05:40:58;;;;;;;7.80;7.20;;;;;;;13.38;100.00;96989.97;4939684;28;20269;-64
2023/09/17 05:43:25;;;;;;;7.83;7.33;;;;;;;13.45;100.00;96988.16;4873947;28;20821;-63
2023/09/17 05:45:57;;;;;;;7.97;7.37;;;;;;;13.57;100.00;96995.50;4935097;28;20770;-62
2023/09/17 05:48:24;;;;;;;7.60;7.10;;;;;;;13.58;100.00;97005.97;4937004;28;20222;-62
2023/09/17 05:50:52;;;;;;;7.83;7.30;;;;;;;13.65;100.00;97000.63;4937414;28;20631;-61
2023/09/17 05:53:21;;;;;;;7.80;7.20;;;;;;;13.72;100.00;97008.56;4936913;28;20199;-63
2023/09/17 05:55:49;;;;;;;9.00;8.40;;;;;;;13.82;100.00;97008.94;4939027;28;20323;-63
2023/09/17 05:58:16;;;;;;;8.30;7.53;;;;;;;13.87;100.00;97011.00;4939039;28;20207;-64
2023/09/17 06:00:44;;;;;;;7.83;7.23;;;;;;;13.93;100.00;97004.03;4943532;28;20696;-60
2023/09/17 06:03:19;;;;;;;9.10;8.30;;;;;;;13.47;100.00;97001.28;4854038;28;20846;-62
2023/09/17 06:05:50;;;;;;;8.57;7.77;;;;;;;13.49;100.00;97006.38;4943548;28;20245;-60
2023/09/17 06:08:18;;;;;;;7.80;7.30;;;;;;;13.22;100.00;97014.34;4893558;28;20829;-64
2023/09/17 06:10:46;;;;;;;8.47;7.93;;;;;;;13.29;100.00;97015.19;4932567;28;20211;-62
2023/09/17 06:13:13;;;;;;;8.23;7.63;;;;;;;13.26;100.00;97012.94;4931317;28;20849;-63
2023/09/17 06:15:43;;;;;;;8.77;8.07;;;;;;;13.25;100.00;97016.59;4935727;28;20223;-65
2023/09/17 06:18:11;;;;;;;8.50;7.90;;;;;;;13.38;100.00;97008.63;4902151;28;20943;-61
2023/09/17 06:20:40;;;;;;;8.83;8.13;;;;;;;13.67;100.00;97011.06;4924781;28;20235;-63
2023/09/17 06:23:07;;;;;;;8.30;7.70;;;;;;;13.94;100.00;97008.31;4933189;28;20322;-62
2023/09/17 06:25:35;;;;;;;9.03;8.43;;;;;;;14.16;100.00;97007.00;4932491;28;20289;-60
2023/09/17 06:28:04;;;;;;;8.70;8.10;;;;;;;14.45;100.00;96990.69;4934280;28;20387;-63
2023/09/17 06:30:31;;;;;;;9.10;8.40;;;;;;;14.72;100.00;96994.03;4935801;28;20298;-62
2023/09/17 06:32:59;;;;;;;8.90;8.30;;;;;;;15.04;100.00;96991.34;4936311;28;20452;-60
2023/09/17 06:35:26;;;;;;;8.77;8.17;;;;;;;15.36;100.00;96993.13;4912604;28;20227;-59
2023/09/17 06:37:59;;;;;;;9.47;8.77;;;;;;;15.70;100.00;96990.97;4890337;28;20372;-63
2023/09/17 06:40:29;;;;;;;9.67;8.97;;;;;;;15.90;100.00;96985.44;4880810;28;20660;-61
2023/09/17 06:42:57;;;;;;;9.00;8.30;;;;;;;15.96;100.00;96974.88;4921932;28;20231;-61
2023/09/17 06:45:24;;;;;;;8.00;7.40;;;;;;;16.20;100.00;96981.16;4862506;28;20952;-60
2023/09/17 06:47:52;;;;;;;8.00;7.50;;;;;;;16.34;100.00;96987.16;4918476;28;20690;-59
2023/09/17 06:50:20;;;;;;;8.83;8.13;;;;;;;16.34;100.00;96985.31;4910294;28;20250;-61
2023/09/17 06:52:47;;;;;;;7.70;7.20;;;;;;;16.34;100.00;96989.84;4914607;28;20728;-62
2023/09/17 06:55:17;;;;;;;8.27;7.63;;;;;;;16.40;100.00;97001.50;4937154;28;20751;-64
2023/09/17 06:57:44;;;;;;;8.77;7.70;;;;;;;16.46;100.00;96998.72;4934843;28;20285;-60
2023/09/17 07:00:14;;;;;;;7.83;7.13;;;;;;;16.50;100.00;96993.75;4922273;28;20635;-59
2023/09/17 07:02:42;;;;;;;6.83;6.33;;;;;;;16.63;100.00;96998.09;4904251;28;20211;-63
2023/09/17 07:05:10;;;;;;;7.50;7.00;;;;;;;16.56;100.00;96990.16;4935543;28;20309;-62
2023/09/17 07:07:38;;;;;;;8.20;7.70;;;;;;;16.31;100.00;96992.97;4934296;28;20222;-64
2023/09/17 07:10:07;;;;;;;7.47;6.97;;;;;;;16.30;100.00;96991.34;4900334;28;20892;-62
2023/09/17 07:12:38;;;;;;;7.13;6.53;;;;;;;16.18;100.00;96992.09;4852115;28;20219;-64
2023/09/17 07:15:10;;;;;;;6.50;6.10;;;;;;;16.23;100.00;96983.41;4881419;28;20222;-63
2023/09/17 07:17:38;;;;;;;7.33;6.83;;;;;;;16.58;100.00;96997.97;4938327;28;20211;-63
2023/09/17 07:20:07;;;;;;;8.20;7.50;;;;;;;16.83;100.00;96983.59;4934396;28;20238;-64
2023/09/17 07:22:35;;;;;;;8.00;7.50;;;;;;;16.96;100.00;96991.44;4935852;28;20211;-63
2023/09/17 07:25:04;;;;;;;7.50;6.93;;;;;;;17.18;100.00;96986.38;4889314;28;20227;-62
2023/09/17 07:27:33;;;;;;;8.00;7.50;;;;;;;17.41;100.00;96991.97;4938228;28;20289;-63
2023/09/17 07:30:02;;;;;;;6.57;6.17;;;;;;;17.48;100.00;96996.19;4933513;28;20239;-62
2023/09/17 07:32:30;;;;;;;8.07;7.37;;;;;;;17.89;100.00;96990.91;4935676;28;20858;-64
2023/09/17 07:35:01;;;;;;;7.80;7.20;;;;;;;18.05;100.00;96996.63;4877336;28;20227;-63
2023/09/17 07:37:29;;;;;;;6.93;6.53;;;;;;;18.35;100.00;96990.22;4938573;28;20330;-63
2023/09/17 07:40:17;;;;;;;7.53;7.03;;;;;;;18.44;100.00;96986.13;4936745;28;20199;-62
2023/09/17 07:42:45;;;;;;;6.57;6.17;;;;;;;18.64;100.00;96988.38;4936285;28;20786;-63
2023/09/17 07:45:14;;;;;;;6.83;6.43;;;;;;;18.63;100.00;96988.59;4769414;28;20750;-61
2023/09/17 07:47:42;;;;;;;6.43;6.00;;;;;;;18.61;100.00;96996.06;4936364;28;20293;-60
2023/09/17 07:50:10;;;;;;;6.23;5.83;;;;;;;18.68;100.00;96991.34;4931591;28;20762;-61
2023/09/17 07:52:38;;;;;;;6.60;6.20;;;;;;;18.72;100.00;96997.06;4940289;28;20243;-60
2023/09/17 07:55:07;;;;;;;6.77;6.27;;;;;;;18.74;100.00;96995.75;4886872;28;20238;-61
2023/09/17 07:57:36;;;;;;;7.43;6.93;;;;;;;18.77;100.00;96989.94;4939724;28;20199;-62
2023/09/17 08:00:06;;;;;;;6.87;6.37;;;;;;;18.63;100.00;96981.38;4875259;28;20591;-62
2023/09/17 08:02:35;;;;;;;7.33;6.83;;;;;;;18.69;100.00;96982.25;4939924;28;20215;-62
2023/09/17 08:05:03;;;;;;;6.97;6.37;;;;;;;18.85;100.00;96982.53;4931215;28;20243;-62
2023/09/17 08:07:30;;;;;;;6.30;5.80;;;;;;;18.97;100.00;96977.09;4936567;28;20207;-64
2023/09/17 08:09:58;;;;;;;6.13;5.73;;;;;;;19.03;100.00;96982.31;4929660;28;20211;-62
2023/09/17 08:12:26;;;;;;;6.73;6.23;;;;;;;19.16;100.00;96986.56;4937592;28;20199;-64
2023/09/17 08:14:54;;;;;;;6.33;5.80;;;;;;;19.19;100.00;96991.44;4827550;28;20942;-63
2023/09/17 08:17:21;;;;;;;6.57;5.87;;;;;;;19.29;100.00;96982.75;4882180;28;20243;-59
2023/09/17 08:19:50;;;;;;;6.60;5.97;;;;;;;19.58;100.00;96988.00;4937423;28;20203;-59
2023/09/17 08:22:18;;;;;;;6.40;6.00;;;;;;;19.78;100.00;96978.59;4928734;28;20217;-63
2023/09/17 08:24:47;;;;;;;6.00;5.60;;;;;;;19.99;100.00;96984.28;4939733;28;20227;-63
2023/09/17 08:27:16;;;;;;;6.07;5.67;;;;;;;20.47;100.00;96979.19;4889081;28;20211;-62
2023/09/17 08:29:45;;;;;;;6.17;5.67;;;;;;;20.56;100.00;96990.28;4940155;28;20301;-61
2023/09/17 08:32:13;;;;;;;6.00;5.60;;;;;;;20.49;100.00;96994.00;4886438;28;20215;-63
2023/09/17 08:34:40;;;;;;;6.60;6.20;;;;;;;19.83;100.00;96999.34;4938947;28;20286;-61
2023/09/17 08:37:09;;;;;;;6.57;6.10;;;;;;;19.66;100.00;97003.72;4934064;28;20254;-61
2023/09/17 08:39:37;;;;;;;6.23;5.83;;;;;;;19.99;100.00;97000.41;4870534;28;20798;-61
2023/09/17 08:42:05;;;;;;;5.50;5.13;;;;;;;20.19;100.00;96997.94;4938771;28;20771;-59
2023/09/17 08:44:36;;;;;;;5.43;5.13;;;;;;;20.50;100.00;96989.44;4821392;28;21473;-62
2023/09/17 08:47:05;;;;;;;6.50;5.87;;;;;;;20.79;100.00;97003.47;4941049;28;20266;-64
2023/09/17 08:49:32;;;;;;;5.30;5.00;;;;;;;21.17;100.00;96990.06;4937961;28;20219;-69
2023/09/17 08:52:04;;;;;;;6.67;6.17;;;;;;;21.49;100.00;97007.28;4936938;28;20230;-64
2023/09/17 08:54:38;;;;;;;5.70;5.30;;;;;;;21.86;100.00;97009.16;4937347;28;20203;-65
2023/09/17 08:57:07;;;;;;;5.43;5.07;;;;;;;22.04;100.00;97015.16;4936931;28;20207;-66
2023/09/17 08:59:39;;;;;;;5.13;4.83;;;;;;;22.20;100.00;97010.66;4889744;28;20817;-59
2023/09/17 09:02:16;;;;;;;5.10;4.80;;;;;;;22.77;100.00;97017.06;4940128;28;20246;-63
2023/09/17 09:04:47;;;;;;;5.73;5.33;;;;;;;22.78;100.00;97007.09;4883333;28;21235;-62
2023/09/17 09:07:15;;;;;;;6.57;5.90;;;;;;;22.70;100.00;97013.81;4938220;28;20207;-63
2023/09/17 09:09:46;;;;;;;5.70;5.30;;;;;;;22.73;100.00;97004.34;4936179;28;20429;-63
2023/09/17 09:12:15;;;;;;;5.53;5.13;;;;;;;22.66;100.00;96996.53;4936873;28;20250;-66
2023/09/17 09:14:43;;;;;;;6.30;5.80;;;;;;;22.69;100.00;96993.28;4878222;28;23506;-63
2023/09/17 09:17:12;;;;;;;5.93;5.63;;;;;;;23.06;100.00;97011.16;4941670;28;20286;-64
2023/09/17 09:19:40;;;;;;;6.83;6.27;;;;;;;23.05;100.00;97006.84;4805057;28;22082;-58
2023/09/17 09:22:08;;;;;;;5.63;5.27;;;;;;;23.36;100.00;97004.19;4869764;28;20685;-62
2023/09/17 09:24:47;;;;;;;6.20;5.70;;;;;;;23.55;100.00;97011.72;4872077;28;20321;-63
2023/09/17 09:27:15;;;;;;;5.47;5.17;;;;;;;23.69;100.00;97006.56;4938831;28;20986;-62
2023/09/17 09:29:43;;;;;;;5.93;5.43;;;;;;;23.68;100.00;96994.94;4937886;28;20258;-62
2023/09/17 09:32:11;;;;;;;5.20;4.80;;;;;;;23.64;100.00;97009.28;4936232;28;20266;-64
2023/09/17 09:34:40;;;;;;;5.23;4.83;;;;;;;23.26;100.00;97009.56;4891701;28;20298;-61
2023/09/17 09:37:08;;;;;;;6.17;5.47;;;;;;;23.31;100.00;97001.47;4936946;28;20262;-59
2023/09/17 09:39:36;;;;;;;5.73;5.33;;;;;;;23.29;100.00;97019.84;4880829;28;20785;-64
2023/09/17 09:42:07;;;;;;;5.60;5.20;;;;;;;23.31;100.00;97011.47;4936736;28;20604;-62
2023/09/17 09:44:36;;;;;;;6.10;5.70;;;;;;;23.21;100.00;97004.97;4935627;28;20293;-60
2023/09/17 09:47:06;;;;;;;6.27;5.87;;;;;;;23.42;100.00;96996.84;4936575;28;20266;-62
2023/09/17 09:49:40;;;;;;;5.40;5.00;;;;;;;23.64;100.00;96993.84;4937148;28;20610;-64
2023/09/17 09:52:08;;;;;;;7.97;5.40;;;;;;;23.67;100.00;97001.41;4935722;28;20215;-64
2023/09/17 09:54:35;;;;;;;6.00;5.63;;;;;;;23.66;100.00;97007.91;4809924;28;20358;-64
2023/09/17 09:57:06;;;;;;;5.67;5.27;;;;;;;23.91;100.00;97002.72;4938852;28;20203;-65
2023/09/17 09:59:33;;;;;;;5.53;5.23;;;;;;;23.50;100.00;97001.75;4937533;28;20793;-65
2023/09/17 10:02:02;;;;;;;6.03;5.63;;;;;;;23.76;100.00;97003.59;4938662;28;20290;-62
2023/09/17 10:04:30;;;;;;;5.63;5.23;;;;;;;23.68;100.00;97002.22;4875602;28;20223;-64
2023/09/17 10:06:58;;;;;;;6.40;5.90;;;;;;;23.94;100.00;97002.97;4937699;28;20199;-65
2023/09/17 10:09:26;;;;;;;6.10;5.73;;;;;;;23.91;100.00;97008.16;4889551;28;20609;-65
2023/09/17 10:11:54;;;;;;;6.00;5.60;;;;;;;24.24;100.00;97000.47;4940030;28;20953;-63
2023/09/17 10:14:25;;;;;;;5.60;5.20;;;;;;;24.46;100.00;97002.81;4885189;28;20234;-67
2023/09/17 10:16:54;;;;;;;5.63;5.20;;;;;;;24.28;100.00;97002.34;4938513;28;20203;-64
2023/09/17 10:19:23;;;;;;;6.33;5.73;;;;;;;24.48;100.00;96997.94;4935216;28;20199;-61
2023/09/17 10:21:52;;;;;;;5.60;5.20;;;;;;;24.69;100.00;96998.63;4941711;28;20308;-62
2023/09/17 10:24:20;;;;;;;6.27;5.87;;;;;;;24.62;100.00;96994.59;4878195;28;20230;-65
2023/09/17 10:26:47;;;;;;;5.20;4.90;;;;;;;24.34;100.00;97005.03;4940110;28;20311;-63
2023/09/17 10:29:16;;;;;;;6.10;5.70;;;;;;;24.62;100.00;97000.81;4802956;28;20242;-61
2023/09/17 10:31:46;;;;;;;6.20;5.70;;;;;;;24.79;100.00;97005.88;4939142;28;20290;-62
2023/09/17 10:34:14;;;;;;;6.13;5.63;;;;;;;24.70;100.00;97002.94;4935648;28;20211;-61
2023/09/17 10:36:43;;;;;;;5.10;4.80;;;;;;;25.12;100.00;97006.19;4939126;28;20235;-60
2023/09/17 10:39:10;;;;;;;5.33;5.00;;;;;;;24.82;100.00;96993.69;4887004;28;20226;-65
2023/09/17 10:41:38;;;;;;;5.50;5.10;;;;;;;24.67;100.00;96989.13;4936218;28;20308;-65
2023/09/17 10:44:08;;;;;;;5.27;4.87;;;;;;;24.78;100.00;96985.28;4873470;28;20298;-64
2023/09/17 10:46:36;;;;;;;5.60;5.20;;;;;;;24.87;100.00;96979.31;4939509;28;20227;-63
2023/09/17 10:49:06;;;;;;;7.97;7.30;;;;;;;24.86;100.00;96978.47;4890933;28;20399;-61
2023/09/17 10:51:34;;;;;;;5.37;5.07;;;;;;;24.74;100.00;96975.28;4936098;28;20266;-61
2023/09/17 10:54:03;;;;;;;6.10;5.60;;;;;;;24.63;100.00;96985.38;4870136;28;21138;-64
2023/09/17 10:56:31;;;;;;;6.17;5.67;;;;;;;24.85;100.00;96983.09;4937290;28;20290;-59
2023/09/17 10:58:59;;;;;;;5.47;5.17;;;;;;;24.95;100.00;96982.19;4934956;28;20222;-61
2023/09/17 11:01:29;;;;;;;5.70;5.30;;;;;;;24.84;100.00;96989.63;4938296;28;20211;-62
2023/09/17 11:04:02;;;;;;;5.30;5.00;;;;;;;24.82;100.00;96985.56;4830823;28;20222;-62
2023/09/17 11:06:34;;;;;;;4.90;4.60;;;;;;;24.88;100.00;96972.78;4937349;28;20239;-64
2023/09/17 11:09:04;;;;;;;5.47;5.07;;;;;;;24.79;100.00;96978.00;4930620;28;20214;-64
2023/09/17 11:11:34;;;;;;;5.23;4.93;;;;;;;24.85;100.00;96983.09;4935263;28;20211;-62
2023/09/17 11:14:04;;;;;;;5.27;4.93;;;;;;;24.80;100.00;96982.31;4889431;28;20242;-61
2023/09/17 11:16:35;;;;;;;4.80;4.50;;;;;;;24.76;100.00;96984.78;4936058;28;20230;-65
2023/09/17 11:19:05;;;;;;;4.40;4.07;;;;;;;24.61;100.00;96976.72;4891457;28;20226;-63
2023/09/17 11:21:36;;;;;;;5.80;5.40;;;;;;;24.63;100.00;96969.94;4936954;28;20976;-63
2023/09/17 11:24:06;;;;;;;4.70;4.40;;;;;;;24.69;100.00;96976.94;4934266;28;20414;-63
2023/09/17 11:26:38;;;;;;;4.57;4.27;;;;;;;24.78;100.00;96970.97;4936696;28;20234;-58
2023/09/17 11:29:07;;;;;;;5.10;4.70;;;;;;;24.85;100.00;96966.84;4931944;28;20219;-65
2023/09/17 11:31:36;;;;;;;5.03;4.73;;;;;;;24.92;100.00;96976.56;4937200;28;20294;-64